Time;durP1;ratioP1;P1;durP2;ratioP2;P2;SDS_P1;SDS_P2;PMS_P1;PMS_P2;Temp;Humidity;BMP_temperature;BMP_pressure;BME280_temperature;BME280_humidity;BME280_pressure;Samples;Min_cycle;Max_cycle;Signal;HPM_P1;HPM_P2
2022/03/22 00:02:03;;;;;;;22.40;19.58;;;;;;;;;;5027909;28;20096;-91
2022/03/22 00:04:33;;;;;;;23.48;20.08;;;;;;;;;;5032390;28;20075;-91
2022/03/22 00:07:07;;;;;;;22.85;20.00;;;;;;;;;;5044075;22;20059;-91
2022/03/22 00:09:33;;;;;;;21.92;19.58;;;;;;;;;;5041866;23;20521;-91
2022/03/22 00:11:59;;;;;;;21.80;19.35;;;;;;;;;;5030508;28;20138;-91
2022/03/22 00:14:33;;;;;;;23.98;19.83;;;;;;;;;;5029741;28;20488;-90
2022/03/22 00:17:17;;;;;;;24.42;20.65;;;;;;;;;;5021025;28;20049;-89
2022/03/22 00:19:47;;;;;;;22.67;20.25;;;;;;;;;;5020791;28;20045;-88
2022/03/22 00:22:31;;;;;;;23.13;20.42;;;;;;;;;;5029030;28;20486;-90
2022/03/22 00:24:57;;;;;;;23.33;20.50;;;;;;;;;;5030040;28;20045;-89
2022/03/22 00:27:50;;;;;;;22.35;19.95;;;;;;;;;;5024809;28;20600;-91
2022/03/22 00:30:29;;;;;;;22.67;19.67;;;;;;;;;;5026764;28;20513;-89
2022/03/22 00:33:12;;;;;;;23.38;20.48;;;;;;;;;;5024090;28;20120;-88
2022/03/22 00:35:44;;;;;;;25.98;21.42;;;;;;;;;;5029423;28;20050;-89
2022/03/22 00:38:16;;;;;;;24.65;21.30;;;;;;;;;;5007380;28;20117;-89
2022/03/22 00:41:01;;;;;;;23.90;20.20;;;;;;;;;;5032835;28;20045;-89
2022/03/22 00:43:46;;;;;;;22.95;20.45;;;;;;;;;;5022811;28;20081;-90
2022/03/22 00:46:27;;;;;;;24.88;21.92;;;;;;;;;;5024714;28;20490;-89
2022/03/22 00:49:03;;;;;;;;;;;;;;;;;;;;;
2022/03/22 00:51:59;;;;;;;24.67;20.98;;;;;;;;;;4997543;28;20101;-89
2022/03/22 00:54:28;;;;;;;23.58;20.05;;;;;;;;;;5021772;28;20042;-90
2022/03/22 00:57:01;;;;;;;25.92;21.40;;;;;;;;;;5026187;28;20163;-88
2022/03/22 01:02:49;;;;;;;24.20;21.60;;;;;;;;;;5032864;28;20053;-90
2022/03/22 01:05:34;;;;;;;24.33;21.13;;;;;;;;;;5016069;28;20045;-91
2022/03/22 01:08:29;;;;;;;26.13;21.65;;;;;;;;;;4998254;28;20417;-89
2022/03/22 01:11:13;;;;;;;26.65;21.35;;;;;;;;;;5015675;28;20042;-89
2022/03/22 01:13:49;;;;;;;23.50;21.00;;;;;;;;;;5014728;28;20050;-89
2022/03/22 01:16:24;;;;;;;25.63;21.05;;;;;;;;;;5029206;28;20052;-88
2022/03/22 01:18:56;;;;;;;24.95;21.65;;;;;;;;;;5019210;28;20042;-90
2022/03/22 01:21:30;;;;;;;24.25;21.25;;;;;;;;;;5026598;28;20040;-89
2022/03/22 01:24:14;;;;;;;23.65;21.15;;;;;;;;;;5034058;28;20045;-89
2022/03/22 01:26:41;;;;;;;23.90;21.38;;;;;;;;;;5036674;28;20119;-90
2022/03/22 01:29:22;;;;;;;24.67;21.70;;;;;;;;;;5027749;28;20037;-90
2022/03/22 01:32:34;;;;;;;25.42;22.25;;;;;;;;;;5091759;23;20135;-88
2022/03/22 01:35:01;;;;;;;27.20;22.02;;;;;;;;;;5094501;22;20045;-87
2022/03/22 01:38:14;;;;;;;26.98;22.13;;;;;;;;;;5026639;28;20089;-89
2022/03/22 01:40:40;;;;;;;23.85;21.33;;;;;;;;;;5031814;28;20053;-89
2022/03/22 01:43:15;;;;;;;25.80;21.83;;;;;;;;;;5023989;28;20485;-90
2022/03/22 01:45:49;;;;;;;28.23;23.40;;;;;;;;;;5015800;28;20045;-88
2022/03/22 01:48:33;;;;;;;26.23;21.90;;;;;;;;;;5020257;28;20042;-88
2022/03/22 01:51:22;;;;;;;23.80;21.23;;;;;;;;;;5023324;28;20042;-89
2022/03/22 01:53:58;;;;;;;24.23;21.63;;;;;;;;;;5030014;28;20193;-88
2022/03/22 01:56:40;;;;;;;29.45;23.30;;;;;;;;;;5024158;28;20386;-89
2022/03/22 01:59:21;;;;;;;25.35;21.27;;;;;;;;;;5025542;28;20045;-89
2022/03/22 02:08:24;;;;;;;26.20;22.63;;;;;;;;;;5040410;28;20055;-90
2022/03/22 02:10:50;;;;;;;26.50;21.73;;;;;;;;;;5044471;28;20060;-90
2022/03/22 02:13:26;;;;;;;25.88;22.65;;;;;;;;;;5025036;28;20071;-90
2022/03/22 02:15:54;;;;;;;25.35;22.63;;;;;;;;;;5023268;28;20038;-89
2022/03/22 02:18:36;;;;;;;26.05;23.17;;;;;;;;;;5024352;28;20493;-89
2022/03/22 02:21:06;;;;;;;25.27;22.15;;;;;;;;;;5025555;28;20108;-89
2022/03/22 02:23:59;;;;;;;27.10;22.88;;;;;;;;;;5025230;28;20045;-89
2022/03/22 02:26:26;;;;;;;25.45;22.75;;;;;;;;;;5026366;28;20108;-88
2022/03/22 02:29:04;;;;;;;26.63;23.20;;;;;;;;;;5028765;28;20042;-90
2022/03/22 02:31:33;;;;;;;26.27;23.38;;;;;;;;;;5078490;22;20049;-89
2022/03/22 02:34:06;;;;;;;28.90;23.65;;;;;;;;;;5025860;28;20138;-89
2022/03/22 02:36:44;;;;;;;25.02;22.30;;;;;;;;;;5030254;28;20041;-89
2022/03/22 02:39:26;;;;;;;27.48;23.30;;;;;;;;;;5047302;28;20128;-89
2022/03/22 02:41:55;;;;;;;28.55;23.30;;;;;;;;;;5045768;28;20043;-90
2022/03/22 02:44:37;;;;;;;29.77;24.23;;;;;;;;;;5020818;28;20037;-89
2022/03/22 02:47:12;;;;;;;26.60;23.58;;;;;;;;;;5029613;28;20045;-90
2022/03/22 02:49:53;;;;;;;26.42;23.45;;;;;;;;;;5021440;28;20370;-89
2022/03/22 02:52:35;;;;;;;25.77;23.05;;;;;;;;;;5044839;28;20053;-88
2022/03/22 02:55:08;;;;;;;26.15;23.17;;;;;;;;;;5032511;28;20041;-90
2022/03/22 02:57:37;;;;;;;25.42;22.65;;;;;;;;;;5087758;22;20465;-89
2022/03/22 03:00:23;;;;;;;26.63;23.70;;;;;;;;;;5044768;28;20129;-89
2022/03/22 03:03:04;;;;;;;26.52;23.63;;;;;;;;;;5054603;28;20044;-89
2022/03/22 03:05:42;;;;;;;28.58;23.45;;;;;;;;;;5054360;28;20503;-88
2022/03/22 03:08:18;;;;;;;25.27;22.38;;;;;;;;;;5050489;28;20045;-89
2022/03/22 03:10:59;;;;;;;28.65;24.98;;;;;;;;;;5046204;28;20065;-90
2022/03/22 03:16:49;;;;;;;27.80;23.73;;;;;;;;;;5043495;28;20079;-89
2022/03/22 03:19:33;;;;;;;28.40;25.10;;;;;;;;;;5030414;28;20048;-88
2022/03/22 03:22:20;;;;;;;27.58;24.60;;;;;;;;;;5043448;28;20036;-90
2022/03/22 03:24:48;;;;;;;27.38;23.52;;;;;;;;;;5036309;28;20048;-89
2022/03/22 03:27:34;;;;;;;27.40;24.25;;;;;;;;;;5045531;28;20040;-90
2022/03/22 03:30:22;;;;;;;27.90;24.98;;;;;;;;;;5048660;28;20032;-90
2022/03/22 03:33:06;;;;;;;27.92;24.40;;;;;;;;;;5041623;28;20480;-90
2022/03/22 03:35:38;;;;;;;;;;;;;;;;;;5026485;28;20109;-89
2022/03/22 03:38:04;;;;;;;27.33;24.35;;;;;;;;;;5049743;28;19920;-90
2022/03/22 03:43:52;;;;;;;29.45;25.00;;;;;;;;;;5067174;28;20088;-90
2022/03/22 03:52:53;;;;;;;26.75;23.85;;;;;;;;;;4995115;28;20039;-90
2022/03/22 03:55:25;;;;;;;27.30;24.40;;;;;;;;;;4999275;28;20053;-89
2022/03/22 03:57:52;;;;;;;29.60;25.52;;;;;;;;;;4983954;28;20046;-90
2022/03/22 04:00:33;;;;;;;29.02;24.60;;;;;;;;;;4992785;28;20073;-90
2022/03/22 04:03:15;;;;;;;29.05;25.40;;;;;;;;;;5001435;28;20498;-91
2022/03/22 04:05:59;;;;;;;28.13;24.73;;;;;;;;;;5008801;28;20038;-90
2022/03/22 04:08:37;;;;;;;29.30;25.25;;;;;;;;;;4992271;28;20043;-90
2022/03/22 04:11:22;;;;;;;29.33;25.92;;;;;;;;;;4982810;28;20562;-90
2022/03/22 04:14:06;;;;;;;29.95;24.88;;;;;;;;;;4995881;28;20049;-90
2022/03/22 04:16:34;;;;;;;29.67;26.40;;;;;;;;;;5002252;28;20115;-90
2022/03/22 04:19:36;;;;;;;29.08;25.15;;;;;;;;;;4991825;28;20065;-89
2022/03/22 04:22:05;;;;;;;29.65;25.70;;;;;;;;;;5007339;28;20084;-90
2022/03/22 04:24:48;;;;;;;28.83;25.17;;;;;;;;;;5034664;28;20103;-90
2022/03/22 04:33:15;;;;;;;28.85;25.40;;;;;;;;;;5032685;28;20088;-90
2022/03/22 04:35:41;;;;;;;28.48;24.40;;;;;;;;;;5031150;28;20053;-91
2022/03/22 04:38:17;;;;;;;28.55;24.25;;;;;;;;;;5022863;28;20037;-90
2022/03/22 04:40:43;;;;;;;27.80;24.77;;;;;;;;;;5033251;28;20180;-90
2022/03/22 04:43:09;;;;;;;28.25;25.13;;;;;;;;;;5032284;28;20037;-89
2022/03/22 04:45:35;;;;;;;27.35;24.42;;;;;;;;;;5031249;28;20041;-89
2022/03/22 04:48:19;;;;;;;28.98;25.27;;;;;;;;;;5031150;28;20044;-89
2022/03/22 04:50:48;;;;;;;;;;;;;;;;;;5027030;28;20132;-88
2022/03/22 04:59:38;;;;;;;28.98;24.58;;;;;;;;;;5045120;28;20139;-90
2022/03/22 05:02:04;;;;;;;31.50;24.77;;;;;;;;;;5031673;28;20045;-91
2022/03/22 05:04:37;;;;;;;27.92;24.63;;;;;;;;;;5054385;28;20041;-91
2022/03/22 05:10:26;;;;;;;28.08;24.55;;;;;;;;;;4992848;28;20030;-90
2022/03/22 05:13:16;;;;;;;29.55;25.77;;;;;;;;;;4994814;28;20476;-90
2022/03/22 05:15:57;;;;;;;28.70;24.30;;;;;;;;;;5019695;28;20061;-91
2022/03/22 05:18:36;;;;;;;29.88;26.45;;;;;;;;;;5037860;28;20037;-90
2022/03/22 05:21:04;;;;;;;28.67;25.08;;;;;;;;;;5053719;28;20067;-90
2022/03/22 05:23:54;;;;;;;31.20;26.15;;;;;;;;;;5033333;28;20041;-90
2022/03/22 05:26:22;;;;;;;30.45;25.73;;;;;;;;;;5028694;28;20381;-90
2022/03/22 05:29:45;;;;;;;29.98;26.20;;;;;;;;;;5051110;28;20049;-90
2022/03/22 05:32:26;;;;;;;30.63;27.20;;;;;;;;;;5049621;28;20206;-89
2022/03/22 05:35:14;;;;;;;33.83;26.80;;;;;;;;;;5051486;28;20052;-89
2022/03/22 05:38:03;;;;;;;31.05;27.67;;;;;;;;;;5047111;28;20029;-90
2022/03/22 05:40:47;;;;;;;32.47;28.13;;;;;;;;;;5038562;28;20114;-90
2022/03/22 05:43:35;;;;;;;30.55;27.08;;;;;;;;;;5044509;28;20049;-90
2022/03/22 05:46:22;;;;;;;33.72;28.85;;;;;;;;;;5037394;28;20114;-90
2022/03/22 05:49:10;;;;;;;34.45;28.20;;;;;;;;;;5053513;28;20460;-89
2022/03/22 05:51:36;;;;;;;31.27;27.23;;;;;;;;;;5056729;28;20061;-90
2022/03/22 05:54:11;;;;;;;30.50;26.85;;;;;;;;;;5046834;28;20041;-90
2022/03/22 05:56:41;;;;;;;31.50;27.73;;;;;;;;;;5029352;28;20056;-90
2022/03/22 06:02:50;;;;;;;32.55;27.20;;;;;;;;;;5032711;28;20059;-91
2022/03/22 06:05:23;;;;;;;30.90;26.50;;;;;;;;;;5043856;28;20041;-89
2022/03/22 06:07:49;;;;;;;31.95;27.27;;;;;;;;;;5026070;28;20452;-90
2022/03/22 06:10:35;;;;;;;32.13;27.33;;;;;;;;;;5051456;28;20094;-89
2022/03/22 06:13:12;;;;;;;;;;;;;;;;;;;;;
2022/03/22 06:15:53;;;;;;;34.78;28.05;;;;;;;;;;5052929;28;20085;-89
2022/03/22 06:18:40;;;;;;;32.58;29.00;;;;;;;;;;5053032;28;20393;-89
2022/03/22 06:21:05;;;;;;;31.15;27.55;;;;;;;;;;5043511;28;20243;-89
2022/03/22 06:26:16;;;;;;;35.00;28.77;;;;;;;;;;5039757;28;20053;-90
2022/03/22 06:29:02;;;;;;;30.85;27.52;;;;;;;;;;5048704;28;20060;-89
2022/03/22 06:31:33;;;;;;;32.92;29.13;;;;;;;;;;5059576;28;20084;-88
2022/03/22 06:34:00;;;;;;;34.17;29.00;;;;;;;;;;5044918;28;20045;-88
2022/03/22 06:36:42;;;;;;;32.38;28.83;;;;;;;;;;5037650;28;20103;-89
2022/03/22 06:39:11;;;;;;;33.42;29.50;;;;;;;;;;5036074;28;20034;-88
2022/03/22 06:41:58;;;;;;;33.92;28.27;;;;;;;;;;5033431;28;20037;-88
2022/03/22 06:44:40;;;;;;;32.65;28.73;;;;;;;;;;5035844;28;20142;-89
2022/03/22 06:47:26;;;;;;;37.80;29.02;;;;;;;;;;5032323;28;20034;-90
2022/03/22 06:49:55;;;;;;;33.58;29.00;;;;;;;;;;5031315;28;20404;-88
2022/03/22 06:52:43;;;;;;;36.17;28.92;;;;;;;;;;5036666;28;20079;-87
2022/03/22 06:55:18;;;;;;;37.95;29.20;;;;;;;;;;5031479;28;20121;-87
2022/03/22 06:58:05;;;;;;;36.72;29.70;;;;;;;;;;5034544;28;20068;-87
2022/03/22 07:00:45;;;;;;;35.92;29.05;;;;;;;;;;5032312;28;20167;-89
2022/03/22 07:03:23;;;;;;;35.38;29.73;;;;;;;;;;5030700;28;21368;-88
2022/03/22 07:05:49;;;;;;;39.40;30.00;;;;;;;;;;5027306;23;20050;-89
2022/03/22 07:08:30;;;;;;;35.20;29.10;;;;;;;;;;4990506;28;20046;-88
2022/03/22 07:14:08;;;;;;;34.42;29.20;;;;;;;;;;4999047;23;20065;-88
2022/03/22 07:16:36;;;;;;;38.90;29.10;;;;;;;;;;5030154;28;20766;-90
2022/03/22 07:21:58;;;;;;;33.55;29.65;;;;;;;;;;5024398;22;20103;-88
2022/03/22 07:24:42;;;;;;;34.80;28.50;;;;;;;;;;5032444;28;20157;-88
2022/03/22 07:27:11;;;;;;;35.75;28.10;;;;;;;;;;5052125;22;20506;-89
2022/03/22 07:29:51;;;;;;;32.03;28.08;;;;;;;;;;5013643;28;20118;-89
2022/03/22 07:32:20;;;;;;;32.28;27.88;;;;;;;;;;5008835;28;20055;-88
2022/03/22 07:35:05;;;;;;;34.70;29.10;;;;;;;;;;5012134;28;20077;-89
2022/03/22 07:37:49;;;;;;;35.63;27.52;;;;;;;;;;5014746;28;20034;-89
2022/03/22 07:40:24;;;;;;;31.38;27.98;;;;;;;;;;5028598;28;20132;-90
2022/03/22 07:43:12;;;;;;;33.22;29.27;;;;;;;;;;5015331;28;20052;-89
2022/03/22 07:45:38;;;;;;;33.67;28.58;;;;;;;;;;5014419;28;20064;-80
2022/03/22 07:48:07;;;;;;;32.38;28.63;;;;;;;;;;5014116;28;20529;-88
2022/03/22 07:53:36;;;;;;;32.30;28.90;;;;;;;;;;5011255;28;20046;-90
2022/03/22 07:56:14;;;;;;;34.22;29.83;;;;;;;;;;5022404;28;20042;-90
2022/03/22 07:58:50;;;;;;;32.67;28.70;;;;;;;;;;5019395;28;20060;-87
2022/03/22 08:01:22;;;;;;;32.70;29.20;;;;;;;;;;5012063;28;20128;-87
2022/03/22 08:04:10;;;;;;;34.92;31.23;;;;;;;;;;5015662;28;20080;-91
2022/03/22 08:06:56;;;;;;;32.55;29.15;;;;;;;;;;5009526;28;20570;-88
2022/03/22 08:09:22;;;;;;;31.55;28.15;;;;;;;;;;5011373;28;20136;-87
2022/03/22 08:11:54;;;;;;;32.47;29.00;;;;;;;;;;5013715;28;20048;-88
2022/03/22 08:14:22;;;;;;;32.42;29.02;;;;;;;;;;5011941;28;20064;-89
2022/03/22 08:16:48;;;;;;;32.38;28.88;;;;;;;;;;5004198;28;20038;-86
2022/03/22 08:19:28;;;;;;;31.63;28.25;;;;;;;;;;5008318;28;20049;-85
2022/03/22 08:22:13;;;;;;;32.05;28.42;;;;;;;;;;5005656;28;20077;-86
2022/03/22 08:24:39;;;;;;;33.67;28.65;;;;;;;;;;5005081;28;20046;-86
2022/03/22 08:27:12;;;;;;;32.70;29.40;;;;;;;;;;5009838;28;20092;-87
2022/03/22 08:29:38;;;;;;;32.78;29.38;;;;;;;;;;5008470;28;20046;-86
2022/03/22 08:32:13;;;;;;;31.35;28.02;;;;;;;;;;5007676;28;20524;-86
2022/03/22 08:34:50;;;;;;;32.45;28.88;;;;;;;;;;5009513;28;20084;-85
2022/03/22 08:37:16;;;;;;;34.03;30.05;;;;;;;;;;5013213;28;20042;-84
2022/03/22 08:39:42;;;;;;;35.20;28.77;;;;;;;;;;5015955;28;20111;-85
2022/03/22 08:42:38;;;;;;;32.13;28.77;;;;;;;;;;5010449;28;20076;-86
2022/03/22 08:45:51;;;;;;;32.05;28.60;;;;;;;;;;5009508;28;20080;-86
2022/03/22 08:48:18;;;;;;;32.40;27.90;;;;;;;;;;4998980;28;20053;-85
2022/03/22 08:50:45;;;;;;;33.95;29.60;;;;;;;;;;5010474;28;20038;-85
2022/03/22 08:53:23;;;;;;;32.58;28.92;;;;;;;;;;5011977;28;20042;-85
2022/03/22 08:55:50;;;;;;;33.13;29.27;;;;;;;;;;5010545;28;20129;-85
2022/03/22 08:58:18;;;;;;;33.03;29.02;;;;;;;;;;5011503;28;20041;-85
2022/03/22 09:01:31;;;;;;;32.58;29.13;;;;;;;;;;5013858;28;20056;-85
2022/03/22 09:06:50;;;;;;;33.92;30.33;;;;;;;;;;5021175;28;20050;-85
2022/03/22 09:09:16;;;;;;;36.80;30.48;;;;;;;;;;5015447;28;20576;-86
2022/03/22 09:11:42;;;;;;;33.35;29.73;;;;;;;;;;5013382;28;20073;-86
2022/03/22 09:14:24;;;;;;;32.15;28.85;;;;;;;;;;5009928;28;20449;-86
2022/03/22 09:16:59;;;;;;;32.80;29.38;;;;;;;;;;5013104;28;20117;-87
2022/03/22 09:19:36;;;;;;;33.00;29.42;;;;;;;;;;5014508;28;20081;-87
2022/03/22 09:22:03;;;;;;;34.47;29.33;;;;;;;;;;5010616;28;20046;-87
2022/03/22 09:24:47;;;;;;;31.70;28.35;;;;;;;;;;5034568;28;20570;-87
2022/03/22 09:27:28;;;;;;;32.97;29.45;;;;;;;;;;5009003;28;20064;-87
2022/03/22 09:30:04;;;;;;;33.00;29.42;;;;;;;;;;5006583;28;20357;-87
2022/03/22 09:32:41;;;;;;;;;;;;;;;;;;;;;
2022/03/22 09:35:17;;;;;;;33.47;27.80;;;;;;;;;;5010254;28;20056;-87
2022/03/22 09:37:59;;;;;;;30.77;27.50;;;;;;;;;;5021193;28;20048;-87
2022/03/22 09:40:37;;;;;;;32.28;28.73;;;;;;;;;;5026247;28;20058;-87
2022/03/22 09:43:03;;;;;;;33.45;30.05;;;;;;;;;;5008766;28;20100;-87
2022/03/22 09:46:08;;;;;;;31.75;28.30;;;;;;;;;;4993028;28;20061;-86
2022/03/22 09:48:36;;;;;;;32.47;29.08;;;;;;;;;;5009889;28;20081;-87
2022/03/22 09:54:29;;;;;;;34.03;29.33;;;;;;;;;;5011353;28;20056;-87
2022/03/22 09:57:06;;;;;;;32.60;27.77;;;;;;;;;;5009715;28;20417;-87
2022/03/22 09:59:49;;;;;;;30.05;26.95;;;;;;;;;;5010656;28;20502;-87
2022/03/22 10:02:37;;;;;;;31.95;28.45;;;;;;;;;;5009719;28;20409;-87
2022/03/22 10:05:23;;;;;;;32.80;27.40;;;;;;;;;;5008821;28;20064;-88
2022/03/22 10:08:26;;;;;;;30.95;26.65;;;;;;;;;;5016893;28;20042;-88
2022/03/22 10:11:08;;;;;;;29.70;26.45;;;;;;;;;;4978026;28;20054;-87
2022/03/22 10:14:05;;;;;;;31.60;26.88;;;;;;;;;;4958682;28;20149;-87
2022/03/22 10:19:42;;;;;;;33.58;27.52;;;;;;;;;;5007008;28;20046;-89
2022/03/22 10:22:18;;;;;;;33.10;29.23;;;;;;;;;;5014033;28;20046;-89
2022/03/22 10:28:06;;;;;;;32.17;27.83;;;;;;;;;;4986113;28;20452;-89
2022/03/22 10:31:01;;;;;;;29.90;26.70;;;;;;;;;;5015170;28;20069;-89
2022/03/22 10:33:27;;;;;;;30.88;27.58;;;;;;;;;;5005372;28;20127;-89
2022/03/22 10:36:14;;;;;;;31.15;27.85;;;;;;;;;;5014873;28;20061;-88
2022/03/22 10:38:40;;;;;;;32.42;28.95;;;;;;;;;;5006607;28;20038;-89
2022/03/22 10:41:28;;;;;;;31.58;28.25;;;;;;;;;;5032189;28;20479;-88
2022/03/22 10:44:05;;;;;;;31.08;27.67;;;;;;;;;;5006412;28;20045;-89
2022/03/22 10:46:55;;;;;;;29.48;26.38;;;;;;;;;;5021781;28;20505;-88
2022/03/22 10:50:19;;;;;;;28.65;24.67;;;;;;;;;;5025590;28;20088;-88
2022/03/22 10:56:31;;;;;;;29.48;26.13;;;;;;;;;;4954652;29;20047;-88
2022/03/22 10:59:16;;;;;;;28.42;25.50;;;;;;;;;;4944827;29;20040;-90
2022/03/22 11:02:30;;;;;;;31.65;26.90;;;;;;;;;;4971373;29;20122;-90
2022/03/22 11:05:15;;;;;;;30.05;26.17;;;;;;;;;;5023583;28;20115;-89
2022/03/22 11:07:47;;;;;;;28.27;25.33;;;;;;;;;;5031210;28;20049;-88
2022/03/22 11:10:14;;;;;;;29.23;25.15;;;;;;;;;;5024088;28;20077;-88
2022/03/22 11:12:46;;;;;;;28.08;25.15;;;;;;;;;;5033637;28;20127;-84
2022/03/22 11:15:51;;;;;;;29.17;26.33;;;;;;;;;;5052383;23;20083;-89
2022/03/22 11:18:37;;;;;;;27.92;25.13;;;;;;;;;;5078245;28;20045;-89
2022/03/22 11:21:03;;;;;;;29.13;26.20;;;;;;;;;;5058267;28;20041;-84
2022/03/22 11:23:31;;;;;;;28.40;25.63;;;;;;;;;;5057747;28;20123;-89
2022/03/22 11:26:11;;;;;;;27.73;24.80;;;;;;;;;;5057809;28;20098;-91
2022/03/22 11:31:30;;;;;;;26.25;23.50;;;;;;;;;;5158443;22;20060;-89
2022/03/22 11:36:58;;;;;;;27.52;24.00;;;;;;;;;;5076898;28;20074;-91
2022/03/22 11:46:07;;;;;;;26.80;24.13;;;;;;;;;;5365054;22;20056;-89
2022/03/22 11:48:40;;;;;;;26.75;23.95;;;;;;;;;;5052481;28;20049;-90
2022/03/22 11:51:28;;;;;;;27.27;23.88;;;;;;;;;;5038421;28;20044;-90
2022/03/22 11:54:16;;;;;;;24.73;22.08;;;;;;;;;;5046547;28;20084;-89
2022/03/22 11:57:08;;;;;;;23.70;21.17;;;;;;;;;;5048285;28;20540;-89
2022/03/22 12:00:00;;;;;;;23.45;20.95;;;;;;;;;;5028606;28;20529;-90
2022/03/22 12:02:47;;;;;;;26.45;21.95;;;;;;;;;;5068889;28;20045;-90
2022/03/22 12:05:42;;;;;;;25.10;22.08;;;;;;;;;;5048717;28;20057;-91
2022/03/22 12:08:21;;;;;;;24.05;21.55;;;;;;;;;;5041106;28;20136;-92
2022/03/22 12:17:35;;;;;;;24.55;22.08;;;;;;;;;;5011151;28;20049;-91
2022/03/22 12:20:23;;;;;;;24.45;22.00;;;;;;;;;;5010105;28;20124;-90
2022/03/22 12:26:26;;;;;;;24.90;22.50;;;;;;;;;;5004976;28;20089;-91
2022/03/22 12:29:39;;;;;;;23.15;20.85;;;;;;;;;;5008065;28;20075;-91
2022/03/22 12:35:41;;;;;;;22.40;20.20;;;;;;;;;;4976388;28;20089;-90
2022/03/22 12:38:22;;;;;;;24.67;21.30;;;;;;;;;;4980031;28;20090;-89
2022/03/22 12:41:18;;;;;;;22.95;20.20;;;;;;;;;;4998111;22;20090;-90
2022/03/22 12:51:09;;;;;;;24.13;21.58;;;;;;;;;;4923325;28;20097;-90
2022/03/22 12:53:35;;;;;;;22.08;19.77;;;;;;;;;;5024500;28;20117;-91
2022/03/22 12:57:00;;;;;;;20.10;17.48;;;;;;;;;;5009691;28;20054;-90
2022/03/22 12:59:50;;;;;;;21.33;19.05;;;;;;;;;;4932518;29;20061;-91
2022/03/22 13:05:29;;;;;;;20.73;18.60;;;;;;;;;;5024421;28;20541;-91
2022/03/22 13:08:22;;;;;;;21.65;19.38;;;;;;;;;;5012225;28;20099;-89
2022/03/22 13:17:01;;;;;;;;;;;;;;;;;;5050379;28;20045;-92
2022/03/22 14:04:58;;;;;;;23.63;21.45;;;;;;;;;;5037229;28;20126;-83
2022/03/22 14:10:43;;;;;;;24.83;22.42;;;;;;;;;;4985148;28;20565;-92
2022/03/22 15:31:58;;;;;;;22.80;20.42;;;;;;;;;;4947209;29;20055;-92
2022/03/22 15:34:24;;;;;;;24.05;21.33;;;;;;;;;;4946710;29;20060;-81
2022/03/22 15:40:16;;;;;;;22.67;20.48;;;;;;;;;;4935794;29;20063;-90
2022/03/22 15:43:15;;;;;;;23.10;21.08;;;;;;;;;;4943930;29;20051;-84
2022/03/22 15:45:56;;;;;;;22.70;20.80;;;;;;;;;;4962293;28;20104;-85
2022/03/22 15:48:22;;;;;;;23.13;21.13;;;;;;;;;;5002051;28;20050;-87
2022/03/22 15:50:55;;;;;;;24.05;21.70;;;;;;;;;;5039716;28;20041;-85
2022/03/22 15:53:30;;;;;;;23.55;21.05;;;;;;;;;;5043326;28;20463;-87
2022/03/22 15:59:22;;;;;;;23.60;21.50;;;;;;;;;;4968252;28;20050;-87
2022/03/22 16:02:32;;;;;;;23.27;21.23;;;;;;;;;;4976301;28;20058;-86
2022/03/22 16:05:52;;;;;;;23.25;21.27;;;;;;;;;;4951228;28;20054;-89
2022/03/22 16:08:20;;;;;;;24.23;22.23;;;;;;;;;;5033568;28;20049;-86
2022/03/22 16:10:46;;;;;;;22.38;20.58;;;;;;;;;;5033930;28;20057;-82
2022/03/22 16:13:12;;;;;;;23.48;21.40;;;;;;;;;;5057940;22;20141;-92
2022/03/22 16:18:31;;;;;;;24.00;21.95;;;;;;;;;;5014383;28;20054;-89
2022/03/22 16:20:57;;;;;;;23.25;21.20;;;;;;;;;;5021249;28;20045;-83
2022/03/22 16:23:29;;;;;;;;;;;;;;;;;;5033696;28;20102;-83
2022/03/22 16:25:57;;;;;;;23.40;21.42;;;;;;;;;;5011013;28;19925;-83
2022/03/22 16:28:24;;;;;;;25.38;23.23;;;;;;;;;;5021228;28;20126;-85
2022/03/22 16:30:51;;;;;;;24.55;22.38;;;;;;;;;;5034888;28;20041;-83
2022/03/22 16:41:32;;;;;;;26.73;24.27;;;;;;;;;;5010577;28;20399;-82
2022/03/22 16:43:58;;;;;;;25.83;23.60;;;;;;;;;;5012926;28;20133;-82
2022/03/22 16:46:29;;;;;;;24.63;22.65;;;;;;;;;;5025789;28;20405;-85
2022/03/22 16:48:56;;;;;;;25.10;23.00;;;;;;;;;;5010669;28;20038;-85
2022/03/22 16:51:22;;;;;;;26.10;23.88;;;;;;;;;;5021880;28;20088;-87
2022/03/22 16:53:49;;;;;;;27.52;24.92;;;;;;;;;;5014171;28;20046;-92
2022/03/22 16:56:16;;;;;;;27.27;24.88;;;;;;;;;;5025055;28;20065;-93
2022/03/22 16:58:42;;;;;;;28.15;25.63;;;;;;;;;;5037761;28;20135;-92
2022/03/22 17:01:27;;;;;;;28.00;25.60;;;;;;;;;;5027263;28;20232;-86
2022/03/22 17:03:54;;;;;;;26.73;24.42;;;;;;;;;;5014452;28;20609;-83
2022/03/22 17:06:21;;;;;;;27.42;24.83;;;;;;;;;;5015701;28;20647;-84
2022/03/22 17:08:47;;;;;;;25.85;23.65;;;;;;;;;;5011603;28;20041;-83
2022/03/22 17:11:25;;;;;;;28.20;25.80;;;;;;;;;;5013399;28;20033;-84
2022/03/22 17:13:52;;;;;;;27.50;25.10;;;;;;;;;;5015148;28;20054;-86
2022/03/22 17:16:50;;;;;;;28.27;25.50;;;;;;;;;;5025539;28;20053;-83
2022/03/22 17:19:55;;;;;;;28.13;25.52;;;;;;;;;;5013954;28;20044;-86
2022/03/22 17:22:23;;;;;;;27.63;25.02;;;;;;;;;;5022465;28;20104;-85
2022/03/22 17:24:49;;;;;;;26.65;24.17;;;;;;;;;;5017515;28;20041;-86
2022/03/22 17:27:15;;;;;;;28.15;25.55;;;;;;;;;;4998383;28;20049;-86
2022/03/22 17:29:41;;;;;;;28.42;25.67;;;;;;;;;;5015899;28;20041;-87
2022/03/22 17:32:16;;;;;;;27.95;25.42;;;;;;;;;;5025956;28;20175;-87
2022/03/22 17:35:06;;;;;;;29.25;26.55;;;;;;;;;;5029767;28;20052;-87
2022/03/22 17:37:32;;;;;;;27.25;24.63;;;;;;;;;;5022173;28;20037;-87
2022/03/22 17:40:29;;;;;;;29.45;26.65;;;;;;;;;;5027586;22;20550;-87
2022/03/22 17:43:11;;;;;;;27.35;24.85;;;;;;;;;;5013584;28;20080;-85
2022/03/22 17:45:40;;;;;;;27.55;25.05;;;;;;;;;;5008481;28;20033;-85
2022/03/22 17:48:06;;;;;;;29.05;26.35;;;;;;;;;;5020854;28;20064;-84
2022/03/22 17:50:34;;;;;;;28.83;26.15;;;;;;;;;;5023395;28;20057;-89
2022/03/22 17:53:00;;;;;;;29.40;26.70;;;;;;;;;;5035618;28;20125;-85
2022/03/22 17:55:35;;;;;;;28.30;25.80;;;;;;;;;;5043046;28;20135;-92
2022/03/22 17:58:18;;;;;;;28.23;25.73;;;;;;;;;;5028640;28;20037;-88
2022/03/22 18:00:46;;;;;;;28.75;25.88;;;;;;;;;;5036364;28;20048;-90
2022/03/22 18:03:34;;;;;;;28.45;25.83;;;;;;;;;;5042173;28;20037;-90
2022/03/22 18:06:00;;;;;;;29.60;26.83;;;;;;;;;;5031120;28;20052;-92
2022/03/22 18:08:26;;;;;;;29.15;26.55;;;;;;;;;;5034984;28;20033;-95
2022/03/22 18:13:49;;;;;;;28.80;26.23;;;;;;;;;;5055698;28;20045;-89
2022/03/22 18:16:15;;;;;;;29.67;26.95;;;;;;;;;;5053560;28;20098;-89
2022/03/22 18:18:41;;;;;;;28.48;25.70;;;;;;;;;;5054895;28;20044;-89
2022/03/22 18:21:08;;;;;;;29.23;26.55;;;;;;;;;;5053261;28;20072;-89
2022/03/22 18:23:34;;;;;;;28.75;25.90;;;;;;;;;;5040778;28;20037;-90
2022/03/22 18:26:01;;;;;;;29.13;26.10;;;;;;;;;;5037884;28;20088;-90
2022/03/22 18:28:27;;;;;;;29.05;26.35;;;;;;;;;;5058294;28;20045;-94
2022/03/22 18:30:53;;;;;;;28.90;25.98;;;;;;;;;;5049395;28;20041;-92
2022/03/22 18:33:20;;;;;;;29.02;26.33;;;;;;;;;;5046669;28;20048;-92
2022/03/22 18:35:49;;;;;;;28.75;26.10;;;;;;;;;;5032662;28;20049;-92
2022/03/22 18:38:36;;;;;;;30.70;27.80;;;;;;;;;;5046302;28;20037;-91
2022/03/22 18:41:05;;;;;;;30.40;27.42;;;;;;;;;;5033856;28;20049;-90
2022/03/22 18:43:36;;;;;;;30.05;27.10;;;;;;;;;;5034615;28;20140;-94
2022/03/22 18:55:54;;;;;;;31.92;28.55;;;;;;;;;;4972697;28;20053;-87
2022/03/22 18:58:23;;;;;;;31.65;28.45;;;;;;;;;;4993688;28;20045;-92
2022/03/22 19:00:54;;;;;;;33.42;29.92;;;;;;;;;;4996139;28;20058;-86
2022/03/22 19:03:35;;;;;;;30.27;27.40;;;;;;;;;;5013166;28;20494;-88
2022/03/22 19:06:07;;;;;;;32.35;29.20;;;;;;;;;;5007826;28;20130;-89
2022/03/22 19:08:42;;;;;;;31.75;28.60;;;;;;;;;;5066875;28;20052;-90
2022/03/22 19:11:23;;;;;;;30.90;27.95;;;;;;;;;;5063153;28;20043;-85
2022/03/22 19:13:59;;;;;;;;;;;;;;;;;;;;;
2022/03/22 19:20:04;;;;;;;30.85;27.85;;;;;;;;;;5033812;28;20086;-84
2022/03/22 19:22:33;;;;;;;32.00;28.85;;;;;;;;;;5058300;22;20135;-84
2022/03/22 19:25:05;;;;;;;31.65;28.48;;;;;;;;;;5055182;28;20064;-83
2022/03/22 19:27:31;;;;;;;30.95;28.15;;;;;;;;;;5069631;28;20110;-84
2022/03/22 19:29:57;;;;;;;31.42;28.33;;;;;;;;;;5036800;28;20132;-83
2022/03/22 19:35:12;;;;;;;30.83;27.92;;;;;;;;;;5044816;28;20083;-84
2022/03/22 19:37:38;;;;;;;32.65;29.50;;;;;;;;;;5072570;28;20070;-87
2022/03/22 19:40:04;;;;;;;32.47;29.02;;;;;;;;;;5054858;28;20051;-85
2022/03/22 19:42:50;;;;;;;31.55;28.45;;;;;;;;;;5074220;28;20496;-86
2022/03/22 19:45:17;;;;;;;32.55;29.23;;;;;;;;;;5072649;28;20040;-85
2022/03/22 19:47:43;;;;;;;31.83;28.80;;;;;;;;;;5069499;28;20040;-85
2022/03/22 19:50:21;;;;;;;32.65;29.42;;;;;;;;;;5069897;28;20049;-91
2022/03/22 19:52:52;;;;;;;31.80;28.63;;;;;;;;;;5070607;28;20141;-88
2022/03/22 19:55:34;;;;;;;31.73;28.73;;;;;;;;;;5060671;28;20064;-88
2022/03/22 19:58:20;;;;;;;33.17;29.73;;;;;;;;;;5048861;28;20088;-88